Time;durP1;ratioP1;P1;durP2;ratioP2;P2;SDS_P1;SDS_P2;PMS_P1;PMS_P2;Temp;Humidity;BMP_temperature;BMP_pressure;BME280_temperature;BME280_humidity;BME280_pressure;Samples;Min_cycle;Max_cycle;Signal;HPM_P1;HPM_P2
2023/06/19 00:01:44;;;;;;;6.35;5.65;;;;;;;19.64;100.00;95567.28;5088176;28;20501;-74
2023/06/19 00:04:10;;;;;;;6.07;5.68;;;;;;;19.58;100.00;95566.25;5075093;28;20027;-74
2023/06/19 00:06:36;;;;;;;6.15;5.75;;;;;;;19.54;100.00;95578.34;5062884;28;20099;-74
2023/06/19 00:09:01;;;;;;;6.03;5.45;;;;;;;19.58;100.00;95581.47;5059031;28;20021;-74
2023/06/19 00:11:27;;;;;;;6.10;5.65;;;;;;;19.60;100.00;95582.88;5075567;28;20012;-74
2023/06/19 00:13:52;;;;;;;6.50;5.90;;;;;;;19.58;100.00;95582.25;5062238;28;20021;-75
2023/06/19 00:16:19;;;;;;;6.65;6.10;;;;;;;19.52;100.00;95583.06;5072483;28;20024;-75
2023/06/19 00:18:45;;;;;;;6.55;6.00;;;;;;;19.40;100.00;95587.34;5066880;28;20041;-74
2023/06/19 00:21:10;;;;;;;6.60;5.97;;;;;;;19.37;100.00;95591.25;5078582;28;20066;-74
2023/06/19 00:23:36;;;;;;;5.95;5.45;;;;;;;19.32;100.00;95585.66;5086211;28;20025;-75
2023/06/19 00:26:03;;;;;;;6.80;6.18;;;;;;;19.35;100.00;95587.97;5063670;28;20133;-74
2023/06/19 00:28:29;;;;;;;7.53;6.30;;;;;;;19.42;100.00;95593.28;5068652;28;20029;-75
2023/06/19 00:30:54;;;;;;;10.80;6.10;;;;;;;19.35;100.00;95603.13;5069841;28;20024;-74
2023/06/19 00:33:20;;;;;;;10.10;6.35;;;;;;;19.24;100.00;95605.38;5077141;28;20032;-75
2023/06/19 00:35:45;;;;;;;6.72;6.13;;;;;;;19.18;100.00;95608.81;5079099;28;20023;-74
2023/06/19 00:38:11;;;;;;;6.53;6.03;;;;;;;19.20;100.00;95611.28;5095517;28;20061;-75
2023/06/19 00:40:37;;;;;;;6.82;6.18;;;;;;;19.28;100.00;95605.78;5085284;28;20064;-74
2023/06/19 00:43:03;;;;;;;6.75;6.25;;;;;;;19.33;100.00;95611.31;5066714;28;20408;-75
2023/06/19 00:45:29;;;;;;;7.00;6.28;;;;;;;19.37;100.00;95617.09;5070393;28;20465;-75
2023/06/19 00:47:56;;;;;;;6.57;5.85;;;;;;;19.39;100.00;95617.72;5068351;28;20025;-74
2023/06/19 00:50:23;;;;;;;6.22;5.72;;;;;;;19.40;100.00;95625.53;5069390;28;20028;-75
2023/06/19 00:52:48;;;;;;;7.22;5.88;;;;;;;19.39;100.00;95631.91;5069402;28;20457;-75
2023/06/19 00:55:15;;;;;;;6.40;5.90;;;;;;;19.39;100.00;95634.56;5064532;28;20095;-75
2023/06/19 00:57:41;;;;;;;7.93;6.38;;;;;;;19.33;100.00;95630.84;5074305;28;20025;-75
2023/06/19 01:00:08;;;;;;;6.35;5.72;;;;;;;19.39;100.00;95626.56;5076543;28;20023;-75
2023/06/19 01:02:34;;;;;;;7.47;6.60;;;;;;;19.44;100.00;95629.47;5085899;28;20020;-75
2023/06/19 01:05:00;;;;;;;7.05;6.35;;;;;;;19.37;100.00;95625.94;5060356;28;20389;-75
2023/06/19 01:07:45;;;;;;;6.38;5.95;;;;;;;19.32;100.00;95625.69;5069697;28;20047;-78
2023/06/19 01:10:24;;;;;;;7.87;6.17;;;;;;;19.36;100.00;95632.31;5075492;28;20063;-75
2023/06/19 01:12:56;;;;;;;6.35;5.82;;;;;;;19.42;100.00;95628.84;5079360;28;20107;-75
2023/06/19 01:15:22;;;;;;;6.38;5.47;;;;;;;19.33;100.00;95614.00;5076704;28;20025;-75
2023/06/19 01:17:49;;;;;;;6.78;6.03;;;;;;;19.30;100.00;95611.72;5075237;28;20016;-74
2023/06/19 01:20:15;;;;;;;6.68;5.97;;;;;;;19.30;100.00;95606.41;5069098;28;20079;-75
2023/06/19 01:22:43;;;;;;;6.40;5.80;;;;;;;19.27;100.00;95602.28;5075961;28;20480;-75
2023/06/19 01:25:10;;;;;;;6.05;5.50;;;;;;;19.16;100.00;95593.00;5075930;28;20020;-74
2023/06/19 01:27:36;;;;;;;6.32;5.82;;;;;;;19.08;100.00;95593.16;5076016;28;20139;-75
2023/06/19 01:30:03;;;;;;;7.30;6.05;;;;;;;19.12;100.00;95597.09;5075128;28;20037;-75
2023/06/19 01:32:56;;;;;;;6.75;6.25;;;;;;;19.16;100.00;95584.16;5074236;28;20046;-75
2023/06/19 01:35:27;;;;;;;6.80;6.30;;;;;;;19.09;100.00;95583.31;5071612;28;20425;-75
2023/06/19 01:37:54;;;;;;;6.40;5.88;;;;;;;19.01;100.00;95586.97;5064217;28;20023;-75
2023/06/19 01:40:25;;;;;;;6.40;5.80;;;;;;;19.01;100.00;95584.31;5075402;28;20028;-75
2023/06/19 01:42:52;;;;;;;6.40;6.00;;;;;;;19.03;100.00;95571.59;5076200;28;20032;-75
2023/06/19 01:45:18;;;;;;;6.30;5.68;;;;;;;19.06;100.00;95568.53;5070751;28;20516;-74
2023/06/19 01:47:43;;;;;;;6.60;6.03;;;;;;;19.07;100.00;95572.84;5067203;28;20028;-75
2023/06/19 01:50:10;;;;;;;5.95;5.45;;;;;;;19.07;100.00;95566.69;5075852;28;20095;-75
2023/06/19 01:52:35;;;;;;;6.25;5.85;;;;;;;19.03;100.00;95566.25;5076811;28;20502;-75
2023/06/19 01:55:01;;;;;;;6.65;6.18;;;;;;;19.03;100.00;95560.91;5074304;28;20471;-76
2023/06/19 01:57:26;;;;;;;6.35;5.85;;;;;;;19.02;100.00;95572.63;5075559;28;20446;-75
2023/06/19 01:59:52;;;;;;;7.03;6.00;;;;;;;19.02;100.00;95565.44;5074254;28;20070;-75
2023/06/19 02:02:17;;;;;;;6.85;6.25;;;;;;;19.01;100.00;95557.63;5076105;28;20091;-75
2023/06/19 02:04:42;;;;;;;7.15;6.55;;;;;;;19.01;100.00;95550.47;5074512;28;20013;-75
2023/06/19 02:07:08;;;;;;;6.88;6.38;;;;;;;19.05;100.00;95553.53;5075896;28;20017;-75
2023/06/19 02:09:33;;;;;;;7.18;6.60;;;;;;;18.96;100.00;95552.84;5072695;28;20223;-75
2023/06/19 02:11:59;;;;;;;7.20;6.55;;;;;;;18.93;100.00;95555.13;5065346;28;20115;-78
2023/06/19 02:14:24;;;;;;;8.27;7.10;;;;;;;18.88;100.00;95548.50;5078218;28;20020;-75
2023/06/19 02:16:49;;;;;;;9.18;6.72;;;;;;;18.86;100.00;95547.88;5083695;28;20035;-75
2023/06/19 02:19:15;;;;;;;7.45;6.75;;;;;;;18.84;100.00;95547.25;5056442;28;20040;-75
2023/06/19 02:21:40;;;;;;;7.07;6.38;;;;;;;18.83;100.00;95534.94;5075328;28;20021;-75
2023/06/19 02:24:06;;;;;;;6.80;6.20;;;;;;;18.87;100.00;95541.53;5074542;28;20017;-74
2023/06/19 02:26:31;;;;;;;6.65;5.95;;;;;;;18.85;100.00;95538.22;5068946;28;20067;-75
2023/06/19 02:28:56;;;;;;;5.95;5.55;;;;;;;18.87;100.00;95536.19;5070737;28;20017;-75
2023/06/19 02:31:22;;;;;;;6.90;6.20;;;;;;;18.87;100.00;95527.38;5075222;28;20107;-74
2023/06/19 02:33:48;;;;;;;7.90;7.20;;;;;;;18.89;100.00;95530.66;5086715;28;20051;-74
2023/06/19 02:36:19;;;;;;;7.18;6.55;;;;;;;18.88;100.00;95532.50;5073020;28;20016;-75
2023/06/19 02:38:47;;;;;;;6.65;6.15;;;;;;;18.87;100.00;95538.03;5072114;28;20021;-75
2023/06/19 02:41:13;;;;;;;6.78;6.28;;;;;;;18.92;100.00;95537.47;5081634;28;20103;-74
2023/06/19 02:43:41;;;;;;;6.90;6.40;;;;;;;18.86;100.00;95534.53;5074042;28;20070;-75
2023/06/19 02:46:06;;;;;;;8.30;6.55;;;;;;;18.82;100.00;95541.31;5073860;28;20028;-74
2023/06/19 02:48:31;;;;;;;6.85;6.15;;;;;;;18.80;100.00;95539.88;5070270;28;20031;-74
2023/06/19 02:50:57;;;;;;;7.03;6.40;;;;;;;18.76;100.00;95534.09;5073900;28;20101;-75
2023/06/19 02:53:22;;;;;;;7.30;6.68;;;;;;;18.71;100.00;95532.00;5056606;28;20021;-75
2023/06/19 02:55:48;;;;;;;9.80;6.55;;;;;;;18.74;100.00;95536.13;5070409;28;20017;-75
2023/06/19 02:58:13;;;;;;;8.77;6.50;;;;;;;18.65;100.00;95529.31;5075480;28;20464;-75
2023/06/19 03:00:39;;;;;;;7.15;6.53;;;;;;;18.60;100.00;95532.59;5056069;28;20016;-74
2023/06/19 03:03:05;;;;;;;6.90;6.30;;;;;;;18.59;100.00;95510.41;5074499;28;20104;-74
2023/06/19 03:05:30;;;;;;;7.45;6.35;;;;;;;18.58;100.00;95510.63;5074236;28;20048;-74
2023/06/19 03:07:56;;;;;;;7.80;7.10;;;;;;;18.57;100.00;95501.78;5074806;28;20020;-75
2023/06/19 03:10:21;;;;;;;7.13;6.45;;;;;;;18.58;100.00;95511.44;5063744;28;20036;-74
2023/06/19 03:12:47;;;;;;;7.15;6.50;;;;;;;18.61;100.00;95500.38;5075496;28;20028;-74
2023/06/19 03:15:12;;;;;;;8.82;6.68;;;;;;;18.61;100.00;95496.91;5078387;28;20087;-75
2023/06/19 03:17:38;;;;;;;7.65;7.05;;;;;;;18.57;100.00;95499.13;5078380;28;20541;-74
2023/06/19 03:20:05;;;;;;;7.13;6.53;;;;;;;18.53;100.00;95497.03;5077830;28;20090;-75
2023/06/19 03:22:31;;;;;;;7.60;6.95;;;;;;;18.52;100.00;95501.56;5065390;28;20220;-74
2023/06/19 03:24:57;;;;;;;7.78;7.03;;;;;;;18.57;100.00;95499.13;5078461;28;20132;-74
2023/06/19 03:27:24;;;;;;;8.65;7.82;;;;;;;18.56;100.00;95493.97;5076612;28;20040;-74
2023/06/19 03:29:50;;;;;;;8.80;8.10;;;;;;;18.64;100.00;95493.00;5077824;28;20548;-74
2023/06/19 03:32:15;;;;;;;8.25;7.53;;;;;;;18.51;100.00;95493.75;5078256;28;20181;-74
2023/06/19 03:34:42;;;;;;;8.70;7.90;;;;;;;18.41;100.00;95486.94;5076432;28;20388;-74
2023/06/19 03:37:07;;;;;;;8.48;7.78;;;;;;;18.42;100.00;95482.44;5081196;28;20059;-74
2023/06/19 03:39:33;;;;;;;8.52;7.72;;;;;;;18.42;100.00;95485.09;5077968;28;20032;-74
2023/06/19 03:41:58;;;;;;;8.18;7.57;;;;;;;18.48;100.00;95476.34;5075459;28;20098;-76
2023/06/19 03:44:24;;;;;;;12.98;11.77;;;;;;;18.48;100.00;95479.00;5077671;28;20024;-77
2023/06/19 03:46:50;;;;;;;9.20;8.38;;;;;;;18.47;100.00;95477.34;5059111;28;20091;-76
2023/06/19 03:49:16;;;;;;;8.77;7.97;;;;;;;18.45;100.00;95476.69;5081225;28;20461;-76
2023/06/19 03:51:41;;;;;;;8.93;7.20;;;;;;;18.41;100.00;95486.13;5084823;28;20100;-76
2023/06/19 03:54:06;;;;;;;8.48;7.78;;;;;;;18.36;100.00;95481.41;5082188;28;20028;-75
2023/06/19 03:56:32;;;;;;;7.47;6.97;;;;;;;18.29;100.00;95486.69;5081723;28;20040;-77
2023/06/19 03:58:57;;;;;;;8.02;7.32;;;;;;;18.30;100.00;95477.66;5059325;28;20096;-82
2023/06/19 04:01:22;;;;;;;8.40;7.07;;;;;;;18.32;100.00;95475.63;5078813;28;20020;-82
2023/06/19 04:03:48;;;;;;;7.85;6.93;;;;;;;18.37;100.00;95475.03;5048355;28;20016;-82
2023/06/19 04:06:13;;;;;;;7.82;6.90;;;;;;;18.28;100.00;95481.53;5077890;28;20024;-82
2023/06/19 04:08:39;;;;;;;12.32;8.35;;;;;;;18.28;100.00;95478.88;5076375;28;20048;-82
2023/06/19 04:11:04;;;;;;;13.93;7.78;;;;;;;18.28;100.00;95469.06;5079798;28;20028;-79
2023/06/19 04:13:29;;;;;;;8.07;7.38;;;;;;;18.30;100.00;95483.00;5067122;28;20024;-81
2023/06/19 04:15:55;;;;;;;8.18;7.57;;;;;;;18.29;100.00;95485.84;5085414;28;20013;-81
2023/06/19 04:18:20;;;;;;;8.98;7.30;;;;;;;18.29;100.00;95469.84;5077625;28;20067;-81
2023/06/19 04:20:46;;;;;;;10.25;7.50;;;;;;;18.18;100.00;95461.41;5080441;28;20025;-82
2023/06/19 04:23:11;;;;;;;9.55;8.40;;;;;;;18.20;100.00;95450.53;5074291;28;20024;-84
2023/06/19 04:25:37;;;;;;;8.15;7.45;;;;;;;18.24;100.00;95461.63;5072130;28;20012;-84
2023/06/19 04:28:05;;;;;;;8.85;7.75;;;;;;;18.27;100.00;95451.41;5068358;28;20056;-84
2023/06/19 04:30:30;;;;;;;8.30;6.78;;;;;;;18.32;100.00;95445.47;5075061;28;20028;-82
2023/06/19 04:32:59;;;;;;;8.15;7.45;;;;;;;18.28;100.00;95441.56;5076566;28;20039;-83
2023/06/19 04:35:25;;;;;;;8.45;7.65;;;;;;;18.15;100.00;95436.97;5046295;28;20028;-83
2023/06/19 04:37:50;;;;;;;8.07;7.47;;;;;;;18.15;100.00;95431.66;5069048;28;20016;-83
2023/06/19 04:40:16;;;;;;;7.63;6.93;;;;;;;18.20;100.00;95431.88;5077563;28;20032;-83
2023/06/19 04:42:41;;;;;;;8.20;7.43;;;;;;;18.24;100.00;95429.66;5078001;28;20082;-83
2023/06/19 04:45:07;;;;;;;8.02;7.32;;;;;;;18.26;100.00;95428.47;5079460;28;20054;-83
2023/06/19 04:47:33;;;;;;;8.93;7.32;;;;;;;18.32;100.00;95427.66;5091781;28;20056;-82
2023/06/19 04:49:59;;;;;;;9.20;7.85;;;;;;;18.37;100.00;95418.25;5086863;28;20021;-82
2023/06/19 04:52:25;;;;;;;8.55;7.75;;;;;;;18.55;100.00;95421.22;5079550;28;20020;-82
2023/06/19 04:54:50;;;;;;;10.00;7.43;;;;;;;18.52;100.00;95416.28;5073025;28;20025;-83
2023/06/19 04:57:16;;;;;;;11.20;7.43;;;;;;;18.56;100.00;95409.53;5078471;28;20020;-83
2023/06/19 04:59:42;;;;;;;8.75;8.02;;;;;;;18.49;100.00;95407.84;5078000;28;20024;-83
2023/06/19 05:02:08;;;;;;;8.45;7.35;;;;;;;18.51;100.00;95406.63;5077313;28;20070;-83
2023/06/19 05:04:33;;;;;;;8.90;7.28;;;;;;;18.61;100.00;95398.28;5077043;28;20029;-83
2023/06/19 05:06:59;;;;;;;8.38;7.57;;;;;;;18.67;100.00;95391.28;5057778;28;20107;-83
2023/06/19 05:09:24;;;;;;;12.27;7.47;;;;;;;18.74;100.00;95387.63;5070727;28;20034;-83
2023/06/19 05:11:50;;;;;;;9.43;7.10;;;;;;;18.82;100.00;95386.63;5077502;28;20046;-83
2023/06/19 05:14:15;;;;;;;8.77;7.50;;;;;;;18.83;100.00;95396.28;5065923;28;20038;-84
2023/06/19 05:16:41;;;;;;;8.15;7.50;;;;;;;18.87;100.00;95397.50;5068753;28;20025;-84
2023/06/19 05:19:06;;;;;;;7.30;6.60;;;;;;;18.89;100.00;95399.97;5048984;28;20036;-84
2023/06/19 05:21:32;;;;;;;8.82;7.53;;;;;;;18.92;100.00;95394.25;5074439;28;20032;-85
2023/06/19 05:23:57;;;;;;;8.48;7.78;;;;;;;18.97;100.00;95386.44;5069831;28;20024;-85
2023/06/19 05:26:22;;;;;;;7.28;6.72;;;;;;;18.97;100.00;95385.66;5075692;28;20025;-84
2023/06/19 05:28:48;;;;;;;8.15;7.38;;;;;;;19.00;100.00;95390.59;5074912;28;20028;-84
2023/06/19 05:31:14;;;;;;;15.00;8.23;;;;;;;19.10;100.00;95384.88;5065816;28;20587;-85
2023/06/19 05:33:41;;;;;;;8.45;7.72;;;;;;;19.20;100.00;95385.28;5074006;28;20030;-85
2023/06/19 05:36:06;;;;;;;14.25;7.75;;;;;;;19.39;100.00;95383.69;5069899;28;20396;-83
2023/06/19 05:38:31;;;;;;;8.60;7.82;;;;;;;19.38;100.00;95384.69;5073353;28;20117;-84
2023/06/19 05:40:58;;;;;;;12.77;7.45;;;;;;;19.36;100.00;95391.25;5054744;28;20029;-85
2023/06/19 05:43:24;;;;;;;8.45;7.65;;;;;;;19.31;100.00;95378.53;5073944;28;20028;-84
2023/06/19 05:45:50;;;;;;;11.32;8.13;;;;;;;19.40;100.00;95379.13;5074798;28;20024;-80
2023/06/19 05:48:15;;;;;;;10.50;7.85;;;;;;;19.48;100.00;95373.63;5078075;28;20037;-79
2023/06/19 05:50:41;;;;;;;8.45;7.75;;;;;;;19.53;100.00;95373.81;5068444;28;20025;-83
2023/06/19 05:53:06;;;;;;;8.63;7.78;;;;;;;19.54;100.00;95372.78;5081302;28;20023;-80
2023/06/19 05:55:32;;;;;;;7.90;7.30;;;;;;;19.57;100.00;95379.56;5075087;28;20047;-79
2023/06/19 05:57:57;;;;;;;9.20;8.35;;;;;;;19.59;100.00;95389.00;5071779;28;20025;-80
2023/06/19 06:00:23;;;;;;;13.13;8.45;;;;;;;19.63;100.00;95381.41;5074525;28;20032;-75
2023/06/19 06:02:50;;;;;;;8.93;8.02;;;;;;;19.56;100.00;95384.06;5073634;28;20035;-76
2023/06/19 06:05:18;;;;;;;8.63;7.93;;;;;;;19.53;100.00;95368.47;5070301;28;20032;-77
2023/06/19 06:07:44;;;;;;;10.35;7.70;;;;;;;19.47;100.00;95361.28;5074611;28;20028;-72
2023/06/19 06:10:10;;;;;;;8.65;7.88;;;;;;;19.51;100.00;95359.84;5074455;28;20016;-78
2023/06/19 06:12:35;;;;;;;8.70;7.88;;;;;;;19.46;100.00;95348.97;5070012;28;20020;-75
2023/06/19 06:15:05;;;;;;;9.25;7.97;;;;;;;19.52;100.00;95358.00;5055940;28;20468;-74
2023/06/19 06:17:30;;;;;;;8.60;7.80;;;;;;;19.56;100.00;95364.56;5074642;28;20104;-74
2023/06/19 06:19:56;;;;;;;9.52;7.85;;;;;;;19.61;100.00;95368.25;5074330;28;20092;-75
2023/06/19 06:22:21;;;;;;;7.97;7.38;;;;;;;19.64;100.00;95367.03;5078500;28;20020;-75
2023/06/19 06:24:47;;;;;;;8.98;7.75;;;;;;;19.66;100.00;95354.28;5058422;28;20052;-76
2023/06/19 06:27:13;;;;;;;8.25;7.60;;;;;;;19.67;100.00;95360.44;5064074;28;20032;-76
2023/06/19 06:29:39;;;;;;;8.43;7.22;;;;;;;19.72;100.00;95358.00;5072307;28;20028;-76
2023/06/19 06:32:06;;;;;;;8.80;7.63;;;;;;;19.75;100.00;95363.72;5082929;28;20027;-75
2023/06/19 06:34:32;;;;;;;8.02;7.40;;;;;;;19.86;100.00;95367.59;5057442;28;20079;-75
2023/06/19 06:36:58;;;;;;;8.20;7.50;;;;;;;19.89;100.00;95374.38;5052836;28;20052;-76
2023/06/19 06:39:24;;;;;;;8.27;7.53;;;;;;;19.90;100.00;95376.03;5076256;28;20020;-76
2023/06/19 06:41:49;;;;;;;8.30;7.22;;;;;;;20.00;100.00;95379.09;5083595;28;20024;-76
2023/06/19 06:44:15;;;;;;;7.50;6.90;;;;;;;20.08;100.00;95383.41;5074354;28;20404;-76
2023/06/19 06:46:40;;;;;;;8.43;7.72;;;;;;;20.07;100.00;95378.28;5067866;28;20100;-76
2023/06/19 06:49:06;;;;;;;8.77;7.82;;;;;;;20.15;100.00;95372.72;5071124;28;20485;-76
2023/06/19 06:51:31;;;;;;;8.32;7.63;;;;;;;20.24;100.00;95376.81;5074364;28;20024;-76
2023/06/19 06:53:56;;;;;;;10.13;7.97;;;;;;;20.34;100.00;95373.69;5050525;28;20023;-76
2023/06/19 06:56:22;;;;;;;10.88;8.00;;;;;;;20.35;100.00;95379.84;5066650;28;20082;-76
2023/06/19 06:58:47;;;;;;;8.60;7.90;;;;;;;20.36;100.00;95386.84;5069441;28;20417;-76
2023/06/19 07:01:13;;;;;;;9.02;8.07;;;;;;;20.42;100.00;95391.31;5074992;28;20043;-76
2023/06/19 07:03:39;;;;;;;11.45;8.27;;;;;;;20.42;100.00;95385.97;5074270;28;20021;-76
2023/06/19 07:06:05;;;;;;;9.02;8.02;;;;;;;20.39;100.00;95391.75;5070545;28;20029;-77
2023/06/19 07:08:30;;;;;;;19.08;8.95;;;;;;;20.38;100.00;95390.09;5075450;28;20032;-77
2023/06/19 07:10:55;;;;;;;11.65;9.07;;;;;;;20.36;100.00;95392.19;5075009;28;20403;-77
2023/06/19 07:13:21;;;;;;;10.10;8.90;;;;;;;20.33;100.00;95393.41;5036739;28;20020;-77
2023/06/19 07:15:46;;;;;;;11.73;7.85;;;;;;;20.33;100.00;95390.72;5083796;28;20066;-76
2023/06/19 07:18:12;;;;;;;9.07;8.27;;;;;;;20.32;100.00;95389.94;5073674;28;20119;-74
2023/06/19 07:20:37;;;;;;;9.55;8.50;;;;;;;20.36;100.00;95393.00;5059371;28;20036;-76
2023/06/19 07:23:03;;;;;;;8.32;7.55;;;;;;;20.41;100.00;95395.03;5048354;28;20013;-75
2023/06/19 07:25:29;;;;;;;13.93;8.18;;;;;;;20.39;100.00;95405.13;5072353;28;20120;-75
2023/06/19 07:27:54;;;;;;;9.10;7.35;;;;;;;20.27;100.00;95395.09;5075443;28;20059;-77
2023/06/19 07:30:20;;;;;;;9.02;7.80;;;;;;;20.27;100.00;95388.91;5073746;28;20051;-78
2023/06/19 07:32:48;;;;;;;11.57;7.97;;;;;;;20.30;100.00;95394.66;5081086;28;20096;-78
2023/06/19 07:35:14;;;;;;;8.25;7.35;;;;;;;20.44;100.00;95407.97;5056640;28;20028;-78
2023/06/19 07:37:39;;;;;;;8.43;7.75;;;;;;;20.36;100.00;95405.53;5080449;28;20020;-78
2023/06/19 07:40:05;;;;;;;8.18;7.32;;;;;;;20.32;100.00;95407.81;5074677;28;20096;-78
2023/06/19 07:42:30;;;;;;;9.07;8.15;;;;;;;20.28;100.00;95402.06;5072882;28;20052;-78
2023/06/19 07:44:56;;;;;;;8.05;7.43;;;;;;;20.21;100.00;95390.56;5076066;28;20065;-78
2023/06/19 07:47:21;;;;;;;9.15;8.25;;;;;;;20.17;100.00;95378.66;5073653;28;20301;-78
2023/06/19 07:49:47;;;;;;;9.88;8.30;;;;;;;20.13;100.00;95372.09;5073042;28;20025;-77
2023/06/19 07:52:13;;;;;;;9.02;8.02;;;;;;;20.07;100.00;95367.59;5073033;28;20495;-79
2023/06/19 07:54:57;;;;;;;10.75;8.88;;;;;;;20.09;100.00;95357.53;5066116;28;20041;-77
2023/06/19 07:57:25;;;;;;;10.67;7.43;;;;;;;20.11;100.00;95358.94;5066108;28;20592;-78
2023/06/19 07:59:54;;;;;;;8.43;7.63;;;;;;;20.24;100.00;95359.94;5074187;28;20287;-78
2023/06/19 08:02:20;;;;;;;10.20;9.20;;;;;;;20.25;100.00;95361.56;5067023;28;20063;-78
2023/06/19 08:04:46;;;;;;;9.13;8.30;;;;;;;20.65;100.00;95365.94;5072014;28;20032;-78
2023/06/19 08:07:12;;;;;;;10.32;8.27;;;;;;;20.59;100.00;95371.09;5074565;28;20039;-77
2023/06/19 08:09:37;;;;;;;9.90;8.88;;;;;;;20.88;100.00;95370.78;5058900;28;20037;-77
2023/06/19 08:12:03;;;;;;;13.25;8.80;;;;;;;21.14;100.00;95367.13;5053227;28;20028;-79
2023/06/19 08:14:28;;;;;;;9.18;8.32;;;;;;;21.10;100.00;95360.53;5064035;28;20111;-78
2023/06/19 08:16:54;;;;;;;9.38;8.48;;;;;;;21.06;100.00;95356.66;5080412;28;20028;-78
2023/06/19 08:19:20;;;;;;;9.57;8.60;;;;;;;21.02;100.00;95363.50;5075446;28;20048;-78
2023/06/19 08:21:45;;;;;;;8.30;7.70;;;;;;;20.98;100.00;95373.00;5082582;28;20028;-78
2023/06/19 08:24:11;;;;;;;8.75;7.95;;;;;;;21.10;100.00;95383.81;5077683;28;20031;-78
2023/06/19 08:26:36;;;;;;;8.90;7.75;;;;;;;21.12;100.00;95392.47;5070418;28;20784;-78
2023/06/19 08:29:01;;;;;;;8.73;8.02;;;;;;;21.30;100.00;95397.06;5076444;28;20025;-77
2023/06/19 08:31:28;;;;;;;8.88;8.02;;;;;;;21.50;100.00;95394.25;5078908;28;20043;-79
2023/06/19 08:33:54;;;;;;;8.68;7.85;;;;;;;21.47;100.00;95408.09;5075079;28;20389;-78
2023/06/19 08:36:20;;;;;;;9.18;8.30;;;;;;;21.49;100.00;95383.75;5084735;28;20028;-79
2023/06/19 08:38:49;;;;;;;10.30;8.38;;;;;;;21.54;100.00;95384.75;5060435;28;20028;-79
2023/06/19 08:41:18;;;;;;;10.02;7.65;;;;;;;21.54;100.00;95392.78;5072675;28;20111;-78
2023/06/19 08:43:44;;;;;;;8.55;7.72;;;;;;;21.74;100.00;95391.81;5088621;28;20113;-78
2023/06/19 08:46:12;;;;;;;8.10;7.40;;;;;;;21.89;100.00;95400.34;5076417;28;20021;-78
2023/06/19 08:48:38;;;;;;;8.32;7.55;;;;;;;21.92;100.00;95407.09;5075942;28;20025;-78
2023/06/19 08:51:05;;;;;;;8.40;7.55;;;;;;;21.95;100.00;95405.84;5075637;28;20499;-77
2023/06/19 08:53:36;;;;;;;8.38;7.30;;;;;;;21.96;100.00;95408.28;5076137;28;20028;-77
2023/06/19 08:56:02;;;;;;;8.18;7.47;;;;;;;22.03;100.00;95395.66;5074922;28;20021;-76
2023/06/19 08:58:28;;;;;;;10.50;8.02;;;;;;;21.92;100.00;95398.25;5082070;28;20025;-77
2023/06/19 09:00:53;;;;;;;8.50;7.80;;;;;;;21.83;100.00;95387.81;5067208;28;20032;-78
2023/06/19 09:03:22;;;;;;;8.50;7.70;;;;;;;21.87;100.00;95382.84;5077413;28;20501;-78
2023/06/19 09:05:51;;;;;;;8.48;7.78;;;;;;;21.86;100.00;95391.91;5082406;28;20088;-77
2023/06/19 09:08:17;;;;;;;8.48;7.20;;;;;;;21.74;100.00;95381.09;5074035;28;20040;-77
2023/06/19 09:10:43;;;;;;;8.68;7.97;;;;;;;21.71;100.00;95376.19;5068552;28;20025;-78
2023/06/19 09:13:09;;;;;;;10.05;7.60;;;;;;;21.73;100.00;95374.91;5076123;28;20096;-77
2023/06/19 09:15:36;;;;;;;8.05;7.05;;;;;;;21.81;100.00;95375.69;5069241;28;20077;-78
2023/06/19 09:18:08;;;;;;;7.82;7.22;;;;;;;21.75;100.00;95369.34;5081013;28;20101;-77
2023/06/19 09:20:44;;;;;;;8.48;7.78;;;;;;;21.72;100.00;95354.53;5083632;28;20043;-77
2023/06/19 09:23:13;;;;;;;9.13;8.13;;;;;;;21.85;100.00;95371.53;5070033;28;20122;-77
2023/06/19 09:25:52;;;;;;;8.30;7.10;;;;;;;21.95;100.00;95361.09;5077435;28;20074;-77
2023/06/19 09:28:18;;;;;;;9.40;8.13;;;;;;;21.88;100.00;95363.88;5057501;28;20125;-77
2023/06/19 09:30:57;;;;;;;13.35;7.55;;;;;;;21.84;100.00;95367.22;5078165;28;20028;-77
2023/06/19 09:33:27;;;;;;;10.23;8.68;;;;;;;21.89;100.00;95376.22;5075240;28;20020;-77
2023/06/19 09:35:55;;;;;;;8.85;7.93;;;;;;;21.60;100.00;95365.09;5058290;28;20024;-76
2023/06/19 09:38:24;;;;;;;8.77;7.97;;;;;;;21.55;100.00;95358.75;5066500;28;20055;-78
2023/06/19 09:40:51;;;;;;;8.20;7.50;;;;;;;21.55;100.00;95372.16;5074479;28;20469;-77
2023/06/19 09:43:20;;;;;;;13.80;8.27;;;;;;;21.53;100.00;95369.72;5068173;28;20035;-77
2023/06/19 09:45:50;;;;;;;8.95;7.80;;;;;;;21.78;100.00;95366.22;5074338;28;20024;-77
2023/06/19 09:48:20;;;;;;;9.57;7.70;;;;;;;21.58;100.00;95369.06;5066392;28;20083;-77
2023/06/19 09:50:50;;;;;;;8.60;7.80;;;;;;;21.58;100.00;95366.38;5074274;28;20078;-78
2023/06/19 09:53:17;;;;;;;9.45;8.55;;;;;;;21.62;100.00;95362.22;5068711;28;20025;-78
2023/06/19 09:55:42;;;;;;;10.82;8.20;;;;;;;21.77;100.00;95353.03;5071741;28;20056;-78
2023/06/19 09:58:09;;;;;;;9.70;8.45;;;;;;;21.96;100.00;95354.69;5081736;28;20047;-78
2023/06/19 10:00:37;;;;;;;12.32;8.32;;;;;;;22.12;100.00;95344.44;5053594;28;20051;-77
2023/06/19 10:03:04;;;;;;;9.05;8.15;;;;;;;22.14;100.00;95347.72;5068048;28;20033;-78
2023/06/19 10:05:32;;;;;;;9.60;8.70;;;;;;;22.16;100.00;95351.00;5067183;28;20056;-78
2023/06/19 10:08:01;;;;;;;9.05;8.32;;;;;;;22.30;100.00;95347.13;5066372;28;20032;-76
2023/06/19 10:10:28;;;;;;;9.93;9.07;;;;;;;22.30;100.00;95352.47;5073286;28;20051;-76
2023/06/19 10:12:58;;;;;;;10.05;8.38;;;;;;;;;;5081700;28;20116;-77
2023/06/19 10:15:26;;;;;;;9.10;8.20;;;;;;;22.58;100.00;95367.22;5068221;28;20404;-76
2023/06/19 10:18:03;;;;;;;9.00;8.05;;;;;;;22.95;100.00;95362.84;5055381;28;20118;-77
2023/06/19 10:20:34;;;;;;;8.13;7.32;;;;;;;23.37;100.00;95380.81;5067808;28;20048;-76
2023/06/19 10:23:06;;;;;;;8.07;7.30;;;;;;;23.87;100.00;95390.34;5068441;28;20029;-75
2023/06/19 10:25:39;;;;;;;13.57;7.95;;;;;;;24.84;100.00;95401.59;5062157;28;20032;-77
2023/06/19 10:28:16;;;;;;;8.57;7.50;;;;;;;25.57;100.00;95406.41;5071856;28;20107;-77
2023/06/19 10:30:42;;;;;;;16.73;8.30;;;;;;;26.21;100.00;95407.16;5073980;28;20059;-78
2023/06/19 10:33:07;;;;;;;9.05;8.18;;;;;;;26.00;100.00;95428.41;5070047;28;20366;-77
2023/06/19 10:35:40;;;;;;;8.02;7.35;;;;;;;25.67;100.00;95426.53;5073942;28;20033;-78
2023/06/19 10:38:07;;;;;;;7.88;6.95;;;;;;;25.67;100.00;95432.72;5071965;28;20420;-77
2023/06/19 10:40:32;;;;;;;9.18;6.93;;;;;;;25.52;100.00;95424.38;5073160;28;20050;-77
2023/06/19 10:42:58;;;;;;;8.15;7.38;;;;;;;25.33;100.00;95421.88;5067875;28;20969;-76
2023/06/19 10:45:28;;;;;;;10.50;7.20;;;;;;;25.23;100.00;95422.53;5068756;28;20119;-77
2023/06/19 10:47:54;;;;;;;10.13;7.80;;;;;;;25.19;100.00;95410.56;5057036;28;20036;-76
2023/06/19 10:50:19;;;;;;;8.73;7.90;;;;;;;25.26;100.00;95405.88;5062240;28;20024;-77
2023/06/19 10:52:47;;;;;;;9.35;7.10;;;;;;;25.27;100.00;95404.81;5056046;28;20024;-76
2023/06/19 10:55:13;;;;;;;7.65;6.95;;;;;;;26.20;100.00;95408.22;5063281;28;20043;-76
2023/06/19 10:57:40;;;;;;;17.08;7.75;;;;;;;26.44;100.00;95421.50;5064659;28;20021;-76
2023/06/19 11:00:14;;;;;;;7.57;6.97;;;;;;;26.75;100.00;95421.88;5066182;28;20074;-75
2023/06/19 11:02:43;;;;;;;12.88;8.02;;;;;;;27.31;100.00;95435.22;5073799;28;20086;-76
2023/06/19 11:05:10;;;;;;;6.97;6.38;;;;;;;27.89;100.00;95450.09;5067243;28;20024;-77
2023/06/19 11:07:35;;;;;;;7.50;6.85;;;;;;;28.20;100.00;95450.34;5058847;28;20021;-77
2023/06/19 11:10:05;;;;;;;7.15;6.55;;;;;;;28.13;100.00;95461.38;5057291;28;20027;-77
2023/06/19 11:12:32;;;;;;;11.05;6.57;;;;;;;28.35;100.00;95452.34;5074333;28;20008;-77
2023/06/19 11:14:58;;;;;;;8.15;6.40;;;;;;;28.45;100.00;95455.09;5063615;28;20021;-77
2023/06/19 11:17:23;;;;;;;6.50;5.90;;;;;;;28.29;100.00;95464.19;5072072;28;20051;-77
2023/06/19 11:19:50;;;;;;;6.72;6.13;;;;;;;28.28;100.00;95476.09;5082744;28;20501;-77
2023/06/19 11:22:16;;;;;;;7.07;6.38;;;;;;;28.56;100.00;95474.13;5059135;28;20060;-78